sensor_id;sensor_type;location;lat;lon;timestamp;pressure;altitude;pressure_sealevel;temperature;humidity
55604;BME280;41468;48.838;9.330;2023-06-14T00:00:37;97805.47;;;16.92;47.94
55604;BME280;41468;48.838;9.330;2023-06-14T00:03:07;97805.91;;;16.90;47.55
55604;BME280;41468;48.838;9.330;2023-06-14T00:05:37;97805.56;;;17.08;47.17
55604;BME280;41468;48.838;9.330;2023-06-14T00:08:07;97813.94;;;16.81;48.58
55604;BME280;41468;48.838;9.330;2023-06-14T00:10:35;97805.25;;;16.83;48.56
55604;BME280;41468;48.838;9.330;2023-06-14T00:13:03;97805.16;;;16.63;49.50
55604;BME280;41468;48.838;9.330;2023-06-14T00:15:31;97806.75;;;16.87;48.15
55604;BME280;41468;48.838;9.330;2023-06-14T00:17:58;97805.59;;;16.61;49.98
55604;BME280;41468;48.838;9.330;2023-06-14T00:20:29;97806.91;;;16.53;50.24
55604;BME280;41468;48.838;9.330;2023-06-14T00:22:57;97800.47;;;16.36;50.89
55604;BME280;41468;48.838;9.330;2023-06-14T00:25:24;97810.19;;;16.21;51.29
55604;BME280;41468;48.838;9.330;2023-06-14T00:27:56;97794.06;;;16.19;51.85
55604;BME280;41468;48.838;9.330;2023-06-14T00:30:24;97793.53;;;16.04;51.73
55604;BME280;41468;48.838;9.330;2023-06-14T00:32:51;97795.53;;;16.00;51.92
55604;BME280;41468;48.838;9.330;2023-06-14T00:35:18;97800.34;;;15.96;52.19
55604;BME280;41468;48.838;9.330;2023-06-14T00:37:45;97801.16;;;15.93;52.67
55604;BME280;41468;48.838;9.330;2023-06-14T00:40:12;97801.22;;;15.89;52.49
55604;BME280;41468;48.838;9.330;2023-06-14T00:42:39;97805.03;;;15.96;52.21
55604;BME280;41468;48.838;9.330;2023-06-14T00:45:06;97809.75;;;15.99;52.92
55604;BME280;41468;48.838;9.330;2023-06-14T00:47:35;97810.56;;;16.23;50.51
55604;BME280;41468;48.838;9.330;2023-06-14T00:50:06;97808.50;;;16.27;49.74
55604;BME280;41468;48.838;9.330;2023-06-14T00:52:45;97806.63;;;15.97;51.81
55604;BME280;41468;48.838;9.330;2023-06-14T00:55:12;97809.97;;;16.08;50.76
55604;BME280;41468;48.838;9.330;2023-06-14T00:57:39;97808.69;;;16.16;50.82
55604;BME280;41468;48.838;9.330;2023-06-14T01:00:07;97806.69;;;16.17;50.72
55604;BME280;41468;48.838;9.330;2023-06-14T01:02:37;97805.72;;;15.76;52.92
55604;BME280;41468;48.838;9.330;2023-06-14T01:05:05;97801.88;;;15.70;53.00
55604;BME280;41468;48.838;9.330;2023-06-14T01:10:52;97799.44;;;15.45;53.76
55604;BME280;41468;48.838;9.330;2023-06-14T01:13:32;97809.31;;;15.39;54.28
55604;BME280;41468;48.838;9.330;2023-06-14T01:16:00;97812.94;;;15.32;54.74
55604;BME280;41468;48.838;9.330;2023-06-14T01:18:28;97809.28;;;15.08;55.99
55604;BME280;41468;48.838;9.330;2023-06-14T01:20:56;97813.59;;;15.09;56.09
55604;BME280;41468;48.838;9.330;2023-06-14T01:23:29;97813.63;;;15.06;56.07
55604;BME280;41468;48.838;9.330;2023-06-14T01:25:59;97814.84;;;15.01;56.15
55604;BME280;41468;48.838;9.330;2023-06-14T01:28:31;97813.38;;;14.93;56.09
55604;BME280;41468;48.838;9.330;2023-06-14T01:31:01;97809.03;;;14.95;56.36
55604;BME280;41468;48.838;9.330;2023-06-14T01:33:35;97815.56;;;15.09;55.97
55604;BME280;41468;48.838;9.330;2023-06-14T01:36:11;97815.06;;;14.83;57.49
55604;BME280;41468;48.838;9.330;2023-06-14T01:38:39;97821.00;;;14.74;57.33
55604;BME280;41468;48.838;9.330;2023-06-14T01:41:06;97821.47;;;14.66;56.60
55604;BME280;41468;48.838;9.330;2023-06-14T01:43:34;97817.53;;;14.67;56.12
55604;BME280;41468;48.838;9.330;2023-06-14T01:46:02;97815.16;;;14.72;56.48
55604;BME280;41468;48.838;9.330;2023-06-14T01:48:29;97813.72;;;14.57;56.98
55604;BME280;41468;48.838;9.330;2023-06-14T01:51:03;97814.50;;;14.57;56.67
55604;BME280;41468;48.838;9.330;2023-06-14T01:53:30;97809.75;;;14.62;57.61
55604;BME280;41468;48.838;9.330;2023-06-14T01:55:57;97818.34;;;14.64;57.66
55604;BME280;41468;48.838;9.330;2023-06-14T01:58:24;97813.91;;;14.32;58.91
55604;BME280;41468;48.838;9.330;2023-06-14T02:00:51;97814.59;;;14.40;58.19
55604;BME280;41468;48.838;9.330;2023-06-14T02:03:21;97814.44;;;14.65;57.63
55604;BME280;41468;48.838;9.330;2023-06-14T02:05:50;97814.59;;;14.43;58.34
55604;BME280;41468;48.838;9.330;2023-06-14T02:08:17;97818.63;;;14.28;58.97
55604;BME280;41468;48.838;9.330;2023-06-14T02:10:44;97815.63;;;14.11;59.58
55604;BME280;41468;48.838;9.330;2023-06-14T02:13:15;97822.66;;;14.12;59.54
55604;BME280;41468;48.838;9.330;2023-06-14T02:15:42;97813.22;;;14.17;59.32
55604;BME280;41468;48.838;9.330;2023-06-14T02:18:11;97814.84;;;14.11;59.94
55604;BME280;41468;48.838;9.330;2023-06-14T02:20:38;97803.97;;;13.93;60.85
55604;BME280;41468;48.838;9.330;2023-06-14T02:23:05;97815.72;;;13.97;60.88
55604;BME280;41468;48.838;9.330;2023-06-14T02:25:34;97818.13;;;13.88;61.49
55604;BME280;41468;48.838;9.330;2023-06-14T02:28:02;97815.41;;;13.84;61.56
55604;BME280;41468;48.838;9.330;2023-06-14T02:30:28;97813.41;;;13.88;61.53
55604;BME280;41468;48.838;9.330;2023-06-14T02:32:55;97818.53;;;13.83;61.94
55604;BME280;41468;48.838;9.330;2023-06-14T02:35:23;97811.00;;;13.98;61.50
55604;BME280;41468;48.838;9.330;2023-06-14T02:37:53;97818.53;;;13.83;61.91
55604;BME280;41468;48.838;9.330;2023-06-14T02:40:20;97818.09;;;13.91;61.78
55604;BME280;41468;48.838;9.330;2023-06-14T02:42:47;97812.22;;;13.89;61.89
55604;BME280;41468;48.838;9.330;2023-06-14T02:45:14;97819.31;;;13.83;61.74
55604;BME280;41468;48.838;9.330;2023-06-14T02:47:41;97816.63;;;13.73;62.17
55604;BME280;41468;48.838;9.330;2023-06-14T02:50:08;97822.78;;;13.91;61.17
55604;BME280;41468;48.838;9.330;2023-06-14T02:52:35;97820.94;;;13.74;61.98
55604;BME280;41468;48.838;9.330;2023-06-14T02:55:02;97818.69;;;13.54;62.13
55604;BME280;41468;48.838;9.330;2023-06-14T02:57:29;97822.97;;;13.62;61.36
55604;BME280;41468;48.838;9.330;2023-06-14T03:00:03;97822.94;;;13.66;61.83
55604;BME280;41468;48.838;9.330;2023-06-14T03:02:34;97828.91;;;13.43;62.54
55604;BME280;41468;48.838;9.330;2023-06-14T03:05:01;97827.72;;;13.47;62.73
55604;BME280;41468;48.838;9.330;2023-06-14T03:07:29;97826.94;;;13.47;63.00
55604;BME280;41468;48.838;9.330;2023-06-14T03:09:56;97830.91;;;13.39;63.26
55604;BME280;41468;48.838;9.330;2023-06-14T03:12:23;97830.09;;;13.42;63.82
55604;BME280;41468;48.838;9.330;2023-06-14T03:14:50;97831.63;;;13.50;63.01
55604;BME280;41468;48.838;9.330;2023-06-14T03:17:18;97838.69;;;13.51;63.04
55604;BME280;41468;48.838;9.330;2023-06-14T03:19:46;97838.72;;;13.40;63.90
55604;BME280;41468;48.838;9.330;2023-06-14T03:22:12;97837.22;;;13.14;64.71
55604;BME280;41468;48.838;9.330;2023-06-14T03:24:51;97837.97;;;13.18;64.29
55604;BME280;41468;48.838;9.330;2023-06-14T03:27:18;97840.34;;;13.16;64.46
55604;BME280;41468;48.838;9.330;2023-06-14T03:29:45;97842.66;;;13.21;63.76
55604;BME280;41468;48.838;9.330;2023-06-14T03:32:12;97842.31;;;13.19;64.25
55604;BME280;41468;48.838;9.330;2023-06-14T03:34:39;97851.66;;;13.40;62.96
55604;BME280;41468;48.838;9.330;2023-06-14T03:37:05;97846.50;;;13.53;62.34
55604;BME280;41468;48.838;9.330;2023-06-14T03:39:32;97846.16;;;13.47;62.84
55604;BME280;41468;48.838;9.330;2023-06-14T03:41:59;97842.69;;;13.29;63.78
55604;BME280;41468;48.838;9.330;2023-06-14T03:44:26;97857.50;;;13.45;63.43
55604;BME280;41468;48.838;9.330;2023-06-14T03:46:53;97855.19;;;13.37;64.28
55604;BME280;41468;48.838;9.330;2023-06-14T03:49:20;97861.44;;;13.37;64.30
55604;BME280;41468;48.838;9.330;2023-06-14T03:51:46;97859.88;;;13.43;63.94
55604;BME280;41468;48.838;9.330;2023-06-14T03:54:18;97863.31;;;13.65;63.73
55604;BME280;41468;48.838;9.330;2023-06-14T03:56:49;97866.00;;;13.76;62.38
55604;BME280;41468;48.838;9.330;2023-06-14T03:59:16;97869.09;;;13.85;60.97
55604;BME280;41468;48.838;9.330;2023-06-14T04:01:42;97868.28;;;13.88;60.91
55604;BME280;41468;48.838;9.330;2023-06-14T04:04:11;97866.72;;;13.91;62.10
55604;BME280;41468;48.838;9.330;2023-06-14T04:06:38;97873.69;;;14.06;60.69
55604;BME280;41468;48.838;9.330;2023-06-14T04:09:08;97871.78;;;13.96;62.01
55604;BME280;41468;48.838;9.330;2023-06-14T04:11:35;97876.44;;;14.06;61.78
55604;BME280;41468;48.838;9.330;2023-06-14T04:14:02;97870.34;;;13.66;64.50
55604;BME280;41468;48.838;9.330;2023-06-14T04:16:29;97880.16;;;13.64;64.33
55604;BME280;41468;48.838;9.330;2023-06-14T04:18:56;97881.03;;;13.46;65.52
55604;BME280;41468;48.838;9.330;2023-06-14T04:21:24;97888.06;;;13.47;65.40
55604;BME280;41468;48.838;9.330;2023-06-14T04:23:53;97886.91;;;13.45;66.37
55604;BME280;41468;48.838;9.330;2023-06-14T04:26:22;97886.50;;;13.50;66.00
55604;BME280;41468;48.838;9.330;2023-06-14T04:29:01;97895.94;;;13.38;66.74
55604;BME280;41468;48.838;9.330;2023-06-14T04:31:29;97894.78;;;13.36;66.96
55604;BME280;41468;48.838;9.330;2023-06-14T04:33:56;97902.22;;;13.32;66.63
55604;BME280;41468;48.838;9.330;2023-06-14T04:36:23;97895.44;;;13.61;65.99
55604;BME280;41468;48.838;9.330;2023-06-14T04:38:54;97898.09;;;13.90;61.79
55604;BME280;41468;48.838;9.330;2023-06-14T04:41:21;97904.31;;;13.94;64.75
55604;BME280;41468;48.838;9.330;2023-06-14T04:43:49;97908.66;;;13.91;65.64
55604;BME280;41468;48.838;9.330;2023-06-14T04:46:16;97919.13;;;14.14;65.28
55604;BME280;41468;48.838;9.330;2023-06-14T04:48:43;97915.50;;;14.28;64.31
55604;BME280;41468;48.838;9.330;2023-06-14T04:51:12;97914.78;;;14.21;65.75
55604;BME280;41468;48.838;9.330;2023-06-14T04:53:39;97915.84;;;14.41;64.60
55604;BME280;41468;48.838;9.330;2023-06-14T04:56:06;97920.13;;;14.46;65.01
55604;BME280;41468;48.838;9.330;2023-06-14T04:58:33;97919.28;;;14.60;63.61
55604;BME280;41468;48.838;9.330;2023-06-14T05:01:00;97928.47;;;14.87;62.03
55604;BME280;41468;48.838;9.330;2023-06-14T05:03:28;97925.41;;;15.23;60.04
55604;BME280;41468;48.838;9.330;2023-06-14T05:05:57;97924.72;;;15.15;59.32
55604;BME280;41468;48.838;9.330;2023-06-14T05:08:24;97919.59;;;15.52;56.61
55604;BME280;41468;48.838;9.330;2023-06-14T05:10:51;97927.91;;;15.82;56.48
55604;BME280;41468;48.838;9.330;2023-06-14T05:13:23;97926.94;;;16.00;55.71
55604;BME280;41468;48.838;9.330;2023-06-14T05:15:50;97927.31;;;16.02;55.86
55604;BME280;41468;48.838;9.330;2023-06-14T05:18:17;97926.88;;;16.03;56.90
55604;BME280;41468;48.838;9.330;2023-06-14T05:20:43;97925.91;;;16.17;55.10
55604;BME280;41468;48.838;9.330;2023-06-14T05:23:11;97930.50;;;16.54;54.61
55604;BME280;41468;48.838;9.330;2023-06-14T05:25:45;97935.44;;;16.67;53.47
55604;BME280;41468;48.838;9.330;2023-06-14T05:28:13;97934.78;;;16.59;55.06
55604;BME280;41468;48.838;9.330;2023-06-14T05:30:40;97934.38;;;16.88;53.96
55604;BME280;41468;48.838;9.330;2023-06-14T05:33:07;97939.63;;;16.78;53.44
55604;BME280;41468;48.838;9.330;2023-06-14T05:35:34;97933.63;;;16.84;53.80
55604;BME280;41468;48.838;9.330;2023-06-14T05:38:01;97934.59;;;17.20;53.52
55604;BME280;41468;48.838;9.330;2023-06-14T05:40:28;97935.75;;;17.43;52.43
55604;BME280;41468;48.838;9.330;2023-06-14T05:42:55;97941.28;;;17.43;52.98
55604;BME280;41468;48.838;9.330;2023-06-14T05:45:22;97933.38;;;17.65;51.68
55604;BME280;41468;48.838;9.330;2023-06-14T05:47:48;97937.91;;;17.75;50.31
55604;BME280;41468;48.838;9.330;2023-06-14T05:50:17;97938.28;;;17.77;51.39
55604;BME280;41468;48.838;9.330;2023-06-14T05:52:43;97937.44;;;18.00;50.42
55604;BME280;41468;48.838;9.330;2023-06-14T05:55:10;97942.63;;;17.98;50.49
55604;BME280;41468;48.838;9.330;2023-06-14T05:57:39;97939.13;;;18.14;49.98
55604;BME280;41468;48.838;9.330;2023-06-14T06:00:07;97939.53;;;18.13;49.42
55604;BME280;41468;48.838;9.330;2023-06-14T06:02:38;97944.88;;;18.40;49.32
55604;BME280;41468;48.838;9.330;2023-06-14T06:05:05;97938.03;;;18.28;49.86
55604;BME280;41468;48.838;9.330;2023-06-14T06:07:32;97941.34;;;18.39;49.53
55604;BME280;41468;48.838;9.330;2023-06-14T06:10:03;97944.16;;;18.72;48.83
55604;BME280;41468;48.838;9.330;2023-06-14T06:12:30;97941.09;;;18.86;48.16
55604;BME280;41468;48.838;9.330;2023-06-14T06:14:57;97942.72;;;18.84;48.55
55604;BME280;41468;48.838;9.330;2023-06-14T06:17:27;97942.47;;;18.94;48.40
55604;BME280;41468;48.838;9.330;2023-06-14T06:20:06;97950.16;;;19.03;48.78
55604;BME280;41468;48.838;9.330;2023-06-14T06:22:34;97949.38;;;19.19;48.30
55604;BME280;41468;48.838;9.330;2023-06-14T06:25:01;97951.34;;;19.35;48.90
55604;BME280;41468;48.838;9.330;2023-06-14T06:27:29;97950.72;;;19.43;48.00
55604;BME280;41468;48.838;9.330;2023-06-14T06:29:56;97953.06;;;19.74;47.81
55604;BME280;41468;48.838;9.330;2023-06-14T06:32:22;97953.06;;;19.74;47.43
55604;BME280;41468;48.838;9.330;2023-06-14T06:34:49;97948.50;;;19.97;47.55
55604;BME280;41468;48.838;9.330;2023-06-14T06:37:16;97947.34;;;20.23;47.04
55604;BME280;41468;48.838;9.330;2023-06-14T06:39:43;97948.31;;;20.17;46.74
55604;BME280;41468;48.838;9.330;2023-06-14T06:42:11;97959.66;;;20.35;46.54
55604;BME280;41468;48.838;9.330;2023-06-14T06:44:38;97960.88;;;20.34;46.37
55604;BME280;41468;48.838;9.330;2023-06-14T06:47:05;97964.00;;;20.49;46.52
55604;BME280;41468;48.838;9.330;2023-06-14T06:49:32;97960.47;;;20.87;45.49
55604;BME280;41468;48.838;9.330;2023-06-14T06:52:03;97958.13;;;20.98;44.42
55604;BME280;41468;48.838;9.330;2023-06-14T06:54:30;97967.97;;;21.25;43.90
55604;BME280;41468;48.838;9.330;2023-06-14T06:57:07;97970.53;;;21.19;43.68
55604;BME280;41468;48.838;9.330;2023-06-14T06:59:35;97972.19;;;21.42;43.53
55604;BME280;41468;48.838;9.330;2023-06-14T07:02:02;97986.41;;;21.31;43.66
55604;BME280;41468;48.838;9.330;2023-06-14T07:04:29;97988.84;;;21.42;42.86
55604;BME280;41468;48.838;9.330;2023-06-14T07:06:56;97986.25;;;21.48;42.56
55604;BME280;41468;48.838;9.330;2023-06-14T07:09:23;97992.34;;;21.55;42.91
55604;BME280;41468;48.838;9.330;2023-06-14T07:11:51;97997.75;;;21.72;42.76
55604;BME280;41468;48.838;9.330;2023-06-14T07:14:18;97991.94;;;21.79;42.30
55604;BME280;41468;48.838;9.330;2023-06-14T07:16:45;97993.63;;;21.76;41.80
55604;BME280;41468;48.838;9.330;2023-06-14T07:19:13;97979.78;;;22.08;42.13
55604;BME280;41468;48.838;9.330;2023-06-14T07:21:40;97990.66;;;22.15;42.04
55604;BME280;41468;48.838;9.330;2023-06-14T07:24:07;97991.38;;;22.28;41.73
55604;BME280;41468;48.838;9.330;2023-06-14T07:26:35;97989.88;;;22.36;41.46
55604;BME280;41468;48.838;9.330;2023-06-14T07:29:02;97992.88;;;22.51;40.07
55604;BME280;41468;48.838;9.330;2023-06-14T07:31:29;97993.97;;;22.54;41.09
55604;BME280;41468;48.838;9.330;2023-06-14T07:33:56;97997.19;;;22.74;40.95
55604;BME280;41468;48.838;9.330;2023-06-14T07:36:23;97999.28;;;22.92;40.46
55604;BME280;41468;48.838;9.330;2023-06-14T07:38:49;97997.38;;;23.20;40.66
55604;BME280;41468;48.838;9.330;2023-06-14T07:41:16;97997.88;;;23.46;40.12
55604;BME280;41468;48.838;9.330;2023-06-14T07:43:43;97996.63;;;23.47;40.38
55604;BME280;41468;48.838;9.330;2023-06-14T07:46:10;97993.41;;;23.58;40.60
55604;BME280;41468;48.838;9.330;2023-06-14T07:48:37;97999.44;;;23.66;40.01
55604;BME280;41468;48.838;9.330;2023-06-14T07:51:04;98000.25;;;23.85;38.77
55604;BME280;41468;48.838;9.330;2023-06-14T07:53:31;97995.75;;;24.06;39.45
55604;BME280;41468;48.838;9.330;2023-06-14T07:55:58;97997.13;;;24.19;38.07
55604;BME280;41468;48.838;9.330;2023-06-14T07:58:29;97999.59;;;24.27;38.48
55604;BME280;41468;48.838;9.330;2023-06-14T08:00:56;98001.16;;;24.09;38.02
55604;BME280;41468;48.838;9.330;2023-06-14T08:03:23;98003.34;;;24.05;38.33
55604;BME280;41468;48.838;9.330;2023-06-14T08:05:51;97997.28;;;24.16;37.98
55604;BME280;41468;48.838;9.330;2023-06-14T08:08:18;97991.50;;;24.38;38.16
55604;BME280;41468;48.838;9.330;2023-06-14T08:10:45;97988.72;;;24.47;37.79
55604;BME280;41468;48.838;9.330;2023-06-14T08:13:11;97997.56;;;24.45;37.51
55604;BME280;41468;48.838;9.330;2023-06-14T08:15:38;97997.66;;;24.60;37.57
55604;BME280;41468;48.838;9.330;2023-06-14T08:18:05;97995.81;;;24.66;37.39
55604;BME280;41468;48.838;9.330;2023-06-14T08:20:32;97995.94;;;24.72;37.07
55604;BME280;41468;48.838;9.330;2023-06-14T08:22:59;97993.03;;;25.00;36.08
55604;BME280;41468;48.838;9.330;2023-06-14T08:25:26;97998.31;;;24.98;36.75
55604;BME280;41468;48.838;9.330;2023-06-14T08:27:53;97997.44;;;24.82;36.47
55604;BME280;41468;48.838;9.330;2023-06-14T08:30:19;97993.22;;;24.96;36.58
55604;BME280;41468;48.838;9.330;2023-06-14T08:32:46;97998.03;;;24.86;35.78
55604;BME280;41468;48.838;9.330;2023-06-14T08:35:18;97998.22;;;24.83;36.86
55604;BME280;41468;48.838;9.330;2023-06-14T08:37:45;98003.19;;;25.21;36.37
55604;BME280;41468;48.838;9.330;2023-06-14T08:42:54;98009.34;;;25.49;35.66
55604;BME280;41468;48.838;9.330;2023-06-14T08:45:22;98004.69;;;25.55;35.31
55604;BME280;41468;48.838;9.330;2023-06-14T08:47:54;98002.66;;;25.56;35.21
55604;BME280;41468;48.838;9.330;2023-06-14T08:50:25;98004.13;;;25.66;35.29
55604;BME280;41468;48.838;9.330;2023-06-14T08:52:59;98003.72;;;25.59;36.31
55604;BME280;41468;48.838;9.330;2023-06-14T08:55:31;98004.34;;;25.77;35.66
55604;BME280;41468;48.838;9.330;2023-06-14T08:58:03;98004.25;;;25.48;35.58
55604;BME280;41468;48.838;9.330;2023-06-14T09:00:31;98006.72;;;25.55;35.14
55604;BME280;41468;48.838;9.330;2023-06-14T09:03:00;98007.03;;;26.11;35.73
55604;BME280;41468;48.838;9.330;2023-06-14T09:05:28;98004.75;;;26.09;34.49
55604;BME280;41468;48.838;9.330;2023-06-14T09:07:55;98004.66;;;26.18;34.55
55604;BME280;41468;48.838;9.330;2023-06-14T09:10:24;98004.91;;;26.06;34.00
55604;BME280;41468;48.838;9.330;2023-06-14T09:12:53;98005.72;;;26.36;33.60
55604;BME280;41468;48.838;9.330;2023-06-14T09:15:20;98009.00;;;26.34;34.16
55604;BME280;41468;48.838;9.330;2023-06-14T09:17:47;98010.19;;;26.57;33.00
55604;BME280;41468;48.838;9.330;2023-06-14T09:20:14;98002.06;;;26.74;32.74
55604;BME280;41468;48.838;9.330;2023-06-14T09:22:46;98017.91;;;26.62;32.68
55604;BME280;41468;48.838;9.330;2023-06-14T09:25:13;98007.00;;;26.79;32.51
55604;BME280;41468;48.838;9.330;2023-06-14T09:28:02;98011.72;;;26.73;32.99
55604;BME280;41468;48.838;9.330;2023-06-14T09:30:28;98013.81;;;26.93;31.73
55604;BME280;41468;48.838;9.330;2023-06-14T09:32:57;98020.34;;;26.55;31.38
55604;BME280;41468;48.838;9.330;2023-06-14T09:35:27;98020.00;;;26.82;31.60
55604;BME280;41468;48.838;9.330;2023-06-14T09:37:56;98022.22;;;26.78;31.29
55604;BME280;41468;48.838;9.330;2023-06-14T09:40:23;98013.34;;;26.35;31.04
55604;BME280;41468;48.838;9.330;2023-06-14T09:42:51;98014.09;;;26.21;32.11
55604;BME280;41468;48.838;9.330;2023-06-14T09:45:18;98014.66;;;25.71;33.84
55604;BME280;41468;48.838;9.330;2023-06-14T09:47:49;98020.06;;;25.27;34.31
55604;BME280;41468;48.838;9.330;2023-06-14T09:50:32;98023.69;;;24.76;35.13
55604;BME280;41468;48.838;9.330;2023-06-14T09:53:03;98018.44;;;24.68;34.21
55604;BME280;41468;48.838;9.330;2023-06-14T09:55:37;98015.75;;;25.26;34.09
55604;BME280;41468;48.838;9.330;2023-06-14T09:58:06;98011.88;;;25.95;33.29
55604;BME280;41468;48.838;9.330;2023-06-14T10:00:35;98011.94;;;26.55;32.92
55604;BME280;41468;48.838;9.330;2023-06-14T10:03:11;98011.50;;;26.92;30.96
55604;BME280;41468;48.838;9.330;2023-06-14T10:05:41;98019.72;;;26.80;29.98
55604;BME280;41468;48.838;9.330;2023-06-14T10:08:09;98017.03;;;26.56;29.73
55604;BME280;41468;48.838;9.330;2023-06-14T10:10:39;98010.16;;;26.42;29.75
55604;BME280;41468;48.838;9.330;2023-06-14T10:13:07;97996.94;;;26.87;29.13
55604;BME280;41468;48.838;9.330;2023-06-14T10:21:18;98010.28;;;27.69;28.45
55604;BME280;41468;48.838;9.330;2023-06-14T10:23:49;98013.31;;;27.86;28.57
55604;BME280;41468;48.838;9.330;2023-06-14T10:26:21;98019.88;;;27.42;28.83
55604;BME280;41468;48.838;9.330;2023-06-14T10:29:08;98010.22;;;27.63;28.03
55604;BME280;41468;48.838;9.330;2023-06-14T10:31:42;97996.47;;;27.86;29.30
55604;BME280;41468;48.838;9.330;2023-06-14T10:34:11;97994.53;;;28.18;28.80
55604;BME280;41468;48.838;9.330;2023-06-14T10:36:43;97992.56;;;28.24;28.62
55604;BME280;41468;48.838;9.330;2023-06-14T10:39:20;97984.97;;;28.56;28.70
55604;BME280;41468;48.838;9.330;2023-06-14T10:41:53;97990.34;;;28.34;28.50
55604;BME280;41468;48.838;9.330;2023-06-14T10:46:52;97997.38;;;28.24;29.16
55604;BME280;41468;48.838;9.330;2023-06-14T10:49:19;97994.56;;;28.44;28.78
55604;BME280;41468;48.838;9.330;2023-06-14T10:51:50;97995.03;;;28.42;28.94
55604;BME280;41468;48.838;9.330;2023-06-14T10:54:21;97991.00;;;28.75;29.40
55604;BME280;41468;48.838;9.330;2023-06-14T10:56:52;97991.41;;;28.62;27.82
55604;BME280;41468;48.838;9.330;2023-06-14T10:59:20;97991.34;;;28.31;28.37
55604;BME280;41468;48.838;9.330;2023-06-14T11:04:48;98001.47;;;26.85;30.56
55604;BME280;41468;48.838;9.330;2023-06-14T11:10:22;97990.72;;;26.98;29.86
55604;BME280;41468;48.838;9.330;2023-06-14T11:12:54;97989.25;;;27.59;28.75
55604;BME280;41468;48.838;9.330;2023-06-14T11:15:28;97983.16;;;27.81;29.00
55604;BME280;41468;48.838;9.330;2023-06-14T11:17:55;97979.91;;;28.08;29.85
55604;BME280;41468;48.838;9.330;2023-06-14T11:20:25;97971.91;;;28.27;29.33
55604;BME280;41468;48.838;9.330;2023-06-14T11:22:54;97974.59;;;28.42;29.93
55604;BME280;41468;48.838;9.330;2023-06-14T11:25:21;97976.63;;;28.68;28.37
55604;BME280;41468;48.838;9.330;2023-06-14T11:27:52;97978.56;;;28.56;29.02
55604;BME280;41468;48.838;9.330;2023-06-14T11:30:19;97987.88;;;28.68;28.49
55604;BME280;41468;48.838;9.330;2023-06-14T11:32:50;97984.13;;;28.50;27.93
55604;BME280;41468;48.838;9.330;2023-06-14T11:35:18;97989.59;;;28.59;27.74
55604;BME280;41468;48.838;9.330;2023-06-14T11:37:45;97991.44;;;28.68;28.03
55604;BME280;41468;48.838;9.330;2023-06-14T11:40:12;97982.25;;;28.68;28.74
55604;BME280;41468;48.838;9.330;2023-06-14T11:42:44;97981.28;;;28.76;28.13
55604;BME280;41468;48.838;9.330;2023-06-14T11:45:11;97983.16;;;28.91;28.30
55604;BME280;41468;48.838;9.330;2023-06-14T11:47:39;97982.13;;;28.88;27.44
55604;BME280;41468;48.838;9.330;2023-06-14T11:50:08;97980.13;;;28.94;28.29
55604;BME280;41468;48.838;9.330;2023-06-14T11:52:37;97979.66;;;29.01;28.76
55604;BME280;41468;48.838;9.330;2023-06-14T11:55:05;97980.78;;;28.46;29.37
55604;BME280;41468;48.838;9.330;2023-06-14T11:57:36;97986.53;;;28.37;29.01
55604;BME280;41468;48.838;9.330;2023-06-14T12:00:15;97972.09;;;28.44;29.24
55604;BME280;41468;48.838;9.330;2023-06-14T12:02:42;97980.34;;;28.53;28.88
55604;BME280;41468;48.838;9.330;2023-06-14T12:05:09;97973.66;;;28.82;28.50
55604;BME280;41468;48.838;9.330;2023-06-14T12:07:39;97971.81;;;28.74;28.96
55604;BME280;41468;48.838;9.330;2023-06-14T12:10:14;97974.56;;;29.00;29.00
55604;BME280;41468;48.838;9.330;2023-06-14T12:12:46;97964.75;;;29.21;28.06
55604;BME280;41468;48.838;9.330;2023-06-14T12:15:12;97971.34;;;29.13;28.41
55604;BME280;41468;48.838;9.330;2023-06-14T12:17:42;97971.91;;;29.28;28.00
55604;BME280;41468;48.838;9.330;2023-06-14T12:20:14;97974.28;;;28.98;28.13
55604;BME280;41468;48.838;9.330;2023-06-14T12:25:30;97963.44;;;29.17;27.65
55604;BME280;41468;48.838;9.330;2023-06-14T12:28:05;97973.34;;;29.06;28.29
55604;BME280;41468;48.838;9.330;2023-06-14T12:30:33;97972.44;;;28.89;28.32
55604;BME280;41468;48.838;9.330;2023-06-14T12:33:04;97964.66;;;28.73;28.19
55604;BME280;41468;48.838;9.330;2023-06-14T12:35:31;97965.50;;;28.21;28.84
55604;BME280;41468;48.838;9.330;2023-06-14T12:38:03;97966.63;;;27.83;30.03
55604;BME280;41468;48.838;9.330;2023-06-14T12:40:30;97961.56;;;27.66;30.17
55604;BME280;41468;48.838;9.330;2023-06-14T12:42:57;97965.97;;;27.93;30.42
55604;BME280;41468;48.838;9.330;2023-06-14T12:45:23;97970.31;;;28.20;29.89
55604;BME280;41468;48.838;9.330;2023-06-14T12:47:50;97966.50;;;28.24;29.55
55604;BME280;41468;48.838;9.330;2023-06-14T12:50:28;97960.66;;;28.22;29.25
55604;BME280;41468;48.838;9.330;2023-06-14T12:52:56;97966.88;;;28.37;29.82
55604;BME280;41468;48.838;9.330;2023-06-14T12:55:22;97966.41;;;28.65;28.82
55604;BME280;41468;48.838;9.330;2023-06-14T12:57:49;97972.78;;;28.65;28.53
55604;BME280;41468;48.838;9.330;2023-06-14T13:00:18;97965.13;;;28.39;28.71
55604;BME280;41468;48.838;9.330;2023-06-14T13:02:58;97973.78;;;28.62;28.32
55604;BME280;41468;48.838;9.330;2023-06-14T13:05:25;97976.50;;;28.88;28.80
55604;BME280;41468;48.838;9.330;2023-06-14T13:07:52;97968.00;;;29.14;28.54
55604;BME280;41468;48.838;9.330;2023-06-14T13:10:19;97970.97;;;29.37;29.39
55604;BME280;41468;48.838;9.330;2023-06-14T13:12:46;97972.00;;;29.02;28.67
55604;BME280;41468;48.838;9.330;2023-06-14T13:15:13;97977.75;;;28.50;28.74
55604;BME280;41468;48.838;9.330;2023-06-14T13:17:40;97979.84;;;28.29;29.53
55604;BME280;41468;48.838;9.330;2023-06-14T13:20:08;97973.25;;;28.63;28.77
55604;BME280;41468;48.838;9.330;2023-06-14T13:22:35;97984.75;;;28.97;28.95
55604;BME280;41468;48.838;9.330;2023-06-14T13:25:03;97975.59;;;29.02;29.11
55604;BME280;41468;48.838;9.330;2023-06-14T13:27:30;97980.00;;;29.09;28.13
55604;BME280;41468;48.838;9.330;2023-06-14T13:29:57;97980.22;;;29.05;27.91